createdAt,value
2022-10-04T00:00:43.520Z,2.97
2022-10-04T00:03:37.927Z,3.55
2022-10-04T00:06:14.981Z,1.80
2022-10-04T00:08:46.398Z,1.48
2022-10-04T00:11:20.289Z,1.60
2022-10-04T00:13:59.768Z,1.48
2022-10-04T00:16:31.906Z,1.13
2022-10-04T00:19:25.300Z,1.20
2022-10-04T00:21:56.413Z,1.45
2022-10-04T00:24:30.256Z,1.27
2022-10-04T00:27:23.932Z,1.20
2022-10-04T00:30:23.341Z,1.00
2022-10-04T00:33:04.398Z,0.95
2022-10-04T00:35:31.698Z,1.25
2022-10-04T00:38:25.267Z,1.75
2022-10-04T00:41:00.390Z,1.00
2022-10-04T00:43:48.809Z,1.40
2022-10-04T00:46:24.315Z,1.30
2022-10-04T00:49:07.171Z,1.27
2022-10-04T00:52:05.721Z,1.25
2022-10-04T00:54:41.386Z,1.10
2022-10-04T00:59:37.857Z,1.05
2022-10-04T01:02:21.788Z,1.20
2022-10-04T01:05:07.542Z,1.40
2022-10-04T01:07:42.076Z,1.33
2022-10-04T01:10:31.778Z,1.15
2022-10-04T01:13:18.058Z,1.30
2022-10-04T01:15:56.650Z,1.40
2022-10-04T01:18:23.597Z,1.75
2022-10-04T01:20:56.722Z,1.50
2022-10-04T01:23:41.865Z,1.45
2022-10-04T01:26:32.557Z,1.42
2022-10-04T01:29:13.811Z,1.55
2022-10-04T01:31:45.376Z,1.70
2022-10-04T01:34:16.157Z,1.70
2022-10-04T01:36:46.457Z,1.55
2022-10-04T01:39:15.009Z,2.05
2022-10-04T01:42:02.969Z,1.48
2022-10-04T01:44:39.777Z,1.60
2022-10-04T01:47:16.620Z,1.60
2022-10-04T01:49:46.882Z,1.50
2022-10-04T01:52:26.801Z,1.25
2022-10-04T01:55:05.915Z,1.27
2022-10-04T01:57:44.781Z,1.45
2022-10-04T02:00:13.631Z,1.65
2022-10-04T02:03:30.075Z,1.30
2022-10-04T02:06:01.262Z,1.40
2022-10-04T02:08:36.237Z,1.73
2022-10-04T02:11:05.604Z,1.08
2022-10-04T02:13:45.898Z,1.95
2022-10-04T02:16:13.566Z,1.60
2022-10-04T02:18:44.236Z,1.60
2022-10-04T02:21:15.581Z,1.30
2022-10-04T02:23:45.245Z,1.40
2022-10-04T02:26:12.704Z,1.50
2022-10-04T02:28:40.799Z,1.45
2022-10-04T02:31:29.953Z,1.83
2022-10-04T02:34:00.368Z,1.52
2022-10-04T02:36:29.743Z,1.48
2022-10-04T02:39:14.450Z,1.17
2022-10-04T02:41:46.531Z,1.25
2022-10-04T02:44:23.985Z,1.73
2022-10-04T02:46:51.573Z,1.23
2022-10-04T02:49:38.104Z,1.60
2022-10-04T02:52:16.384Z,1.55
2022-10-04T02:54:55.693Z,1.30
2022-10-04T02:57:23.993Z,1.20
2022-10-04T03:00:00.822Z,1.88
2022-10-04T03:02:31.015Z,1.50
2022-10-04T03:05:08.530Z,1.40
2022-10-04T03:07:37.181Z,1.52
2022-10-04T03:10:11.141Z,1.80
2022-10-04T03:12:40.580Z,1.55
2022-10-04T03:15:13.075Z,1.40
2022-10-04T03:17:44.025Z,1.77
2022-10-04T03:20:15.776Z,1.45
2022-10-04T03:22:47.070Z,1.92
2022-10-04T03:25:22.370Z,2.00
2022-10-04T03:27:51.325Z,1.30
2022-10-04T03:30:21.852Z,1.80
2022-10-04T03:32:49.571Z,1.60
2022-10-04T03:35:25.864Z,1.40
2022-10-04T03:37:56.369Z,1.33
2022-10-04T03:40:30.530Z,1.60
2022-10-04T03:42:59.440Z,1.83
2022-10-04T03:45:28.573Z,2.10
2022-10-04T03:48:02.522Z,2.45
2022-10-04T03:50:34.556Z,2.15
2022-10-04T03:53:07.918Z,2.28
2022-10-04T03:55:40.545Z,2.05
2022-10-04T03:58:11.309Z,1.85
2022-10-04T04:01:05.078Z,1.95
2022-10-04T04:03:55.393Z,1.83
2022-10-04T04:06:24.802Z,1.90
2022-10-04T04:08:57.531Z,1.73
2022-10-04T04:11:27.094Z,1.67
2022-10-04T04:14:06.927Z,1.85
2022-10-04T04:16:36.316Z,1.92
2022-10-04T04:19:11.614Z,2.05
2022-10-04T04:21:39.045Z,1.92
2022-10-04T04:24:28.286Z,1.95
2022-10-04T04:27:01.508Z,2.00
2022-10-04T04:29:39.511Z,2.13
2022-10-04T04:32:18.873Z,1.70
2022-10-04T04:35:00.733Z,1.95
2022-10-04T04:37:27.962Z,2.10
2022-10-04T04:39:57.906Z,1.75
2022-10-04T04:42:31.849Z,1.55
2022-10-04T04:45:07.759Z,2.00
2022-10-04T04:50:11.912Z,1.75
2022-10-04T04:52:39.372Z,1.50
2022-10-04T04:55:15.909Z,1.85
2022-10-04T04:57:44.998Z,1.80
2022-10-04T05:00:18.505Z,1.63
2022-10-04T05:03:21.148Z,1.75
2022-10-04T05:05:48.741Z,1.70
2022-10-04T05:08:20.990Z,1.92
2022-10-04T05:10:58.267Z,1.75
2022-10-04T05:13:41.185Z,1.67
2022-10-04T05:16:22.455Z,2.15
2022-10-04T05:18:59.757Z,2.00
2022-10-04T05:21:40.829Z,1.50
2022-10-04T05:24:14.144Z,1.90
2022-10-04T05:26:42.438Z,2.40
2022-10-04T05:29:19.576Z,1.80
2022-10-04T05:32:13.590Z,1.98
2022-10-04T05:34:45.441Z,2.22
2022-10-04T05:37:22.388Z,1.92
2022-10-04T05:40:23.692Z,1.85
2022-10-04T05:42:52.306Z,2.75
2022-10-04T05:45:23.288Z,2.20
2022-10-04T05:47:52.489Z,2.20
2022-10-04T05:50:41.651Z,2.20
2022-10-04T05:53:15.580Z,2.08
2022-10-04T05:56:14.722Z,2.45
2022-10-04T05:58:50.904Z,2.67
2022-10-04T06:01:30.601Z,2.25
2022-10-04T06:04:20.696Z,2.28
2022-10-04T06:06:59.841Z,2.00
2022-10-04T06:10:06.004Z,2.40
2022-10-04T06:12:44.374Z,2.20
2022-10-04T06:15:39.853Z,2.80
2022-10-04T06:18:25.799Z,2.97
2022-10-04T06:21:06.448Z,2.22
2022-10-04T06:23:44.201Z,2.15
2022-10-04T06:26:18.206Z,1.98
2022-10-04T06:28:49.590Z,2.80
2022-10-04T06:31:40.426Z,2.35
2022-10-04T06:34:26.485Z,1.92
2022-10-04T06:36:57.115Z,2.05
2022-10-04T06:39:27.232Z,2.00
2022-10-04T06:42:09.596Z,2.30
2022-10-04T06:44:46.641Z,2.83
2022-10-04T06:47:48.903Z,2.13
2022-10-04T06:50:29.037Z,2.38
2022-10-04T06:53:16.774Z,2.60
2022-10-04T06:56:08.565Z,1.77
2022-10-04T06:58:51.149Z,2.10
2022-10-04T07:01:30.429Z,3.20
2022-10-04T07:04:41.167Z,2.22
2022-10-04T07:07:36.365Z,2.13
2022-10-04T07:10:10.238Z,3.33
2022-10-04T07:12:43.160Z,3.42
2022-10-04T07:15:30.651Z,2.13
2022-10-04T07:18:06.201Z,2.00
2022-10-04T07:20:36.455Z,2.13
2022-10-04T07:23:14.420Z,2.67
2022-10-04T07:25:49.151Z,2.20
2022-10-04T07:28:41.025Z,2.33
2022-10-04T07:31:32.781Z,2.47
2022-10-04T07:34:25.322Z,2.50
2022-10-04T07:36:56.789Z,2.22
2022-10-04T07:39:40.458Z,2.40
2022-10-04T07:42:14.726Z,2.30
2022-10-04T07:44:45.507Z,2.15
2022-10-04T07:47:30.062Z,2.28
2022-10-04T07:49:58.415Z,2.15
2022-10-04T07:52:49.021Z,2.35
2022-10-04T07:55:54.211Z,2.20
2022-10-04T07:58:29.378Z,2.10
2022-10-04T08:01:34.580Z,2.05
2022-10-04T08:04:25.938Z,2.30
2022-10-04T08:07:02.591Z,1.90
2022-10-04T08:09:46.082Z,2.35
2022-10-04T08:12:34.804Z,3.83
2022-10-04T08:15:35.991Z,3.90
2022-10-04T08:18:25.052Z,4.00
2022-10-04T08:20:59.368Z,2.70
2022-10-04T08:23:59.166Z,2.08
2022-10-04T08:27:00.428Z,2.88
2022-10-04T08:29:51.323Z,2.10
2022-10-04T08:32:43.532Z,2.00
2022-10-04T08:35:29.342Z,2.03
2022-10-04T08:38:24.292Z,1.77
2022-10-04T08:41:15.711Z,2.47
2022-10-04T08:44:11.097Z,2.40
2022-10-04T08:46:59.290Z,1.92
2022-10-04T08:49:35.420Z,2.22
2022-10-04T08:52:21.535Z,2.38
2022-10-04T08:55:29.346Z,1.98
2022-10-04T08:57:56.950Z,4.43
2022-10-04T09:00:49.109Z,3.47
2022-10-04T09:03:36.793Z,2.30
2022-10-04T09:06:28.592Z,1.95
2022-10-04T09:09:07.979Z,1.63
2022-10-04T09:11:38.430Z,2.50
2022-10-04T09:14:36.762Z,2.85
2022-10-04T09:17:23.160Z,2.00
2022-10-04T09:20:37.753Z,2.33
2022-10-04T09:23:15.444Z,2.30
2022-10-04T09:25:57.743Z,2.00
2022-10-04T09:28:47.238Z,1.83
2022-10-04T09:31:38.959Z,2.00
2022-10-04T09:34:24.415Z,2.13
2022-10-04T09:37:39.869Z,1.98
2022-10-04T09:40:22.209Z,1.77
2022-10-04T09:43:05.227Z,1.98
2022-10-04T09:45:56.766Z,1.90
2022-10-04T09:48:43.117Z,1.73
2022-10-04T09:54:21.407Z,2.10
2022-10-04T09:57:13.128Z,1.90
2022-10-04T10:00:07.223Z,2.05
2022-10-04T10:03:06.729Z,1.90
2022-10-04T10:05:34.160Z,2.10
2022-10-04T10:08:18.122Z,2.20
2022-10-04T10:11:41.077Z,2.03
2022-10-04T10:14:23.576Z,1.92
2022-10-04T10:17:40.222Z,1.80
2022-10-04T10:20:28.555Z,2.03
2022-10-04T10:23:20.203Z,1.77
2022-10-04T10:26:06.386Z,1.50
2022-10-04T10:28:54.756Z,1.48
2022-10-04T10:31:42.655Z,1.60
2022-10-04T10:34:57.022Z,1.73
2022-10-04T10:37:35.952Z,2.00
2022-10-04T10:40:12.227Z,1.90
2022-10-04T10:42:42.213Z,1.90
2022-10-04T10:45:45.982Z,2.00
2022-10-04T10:48:21.233Z,1.58
2022-10-04T10:54:05.454Z,1.45
2022-10-04T10:56:48.131Z,1.77
2022-10-04T10:59:37.445Z,2.00
2022-10-04T11:02:48.094Z,1.50
2022-10-04T11:05:34.561Z,1.75
2022-10-04T11:08:04.831Z,1.58
2022-10-04T11:11:03.461Z,1.67
2022-10-04T11:13:54.264Z,1.90
2022-10-04T11:16:47.745Z,1.63
2022-10-04T11:19:16.205Z,1.38
2022-10-04T11:21:52.514Z,1.77
2022-10-04T11:24:43.459Z,1.42
2022-10-04T11:27:16.694Z,1.85
2022-10-04T11:29:56.054Z,1.60
2022-10-04T11:33:04.824Z,1.55
2022-10-04T11:36:15.348Z,1.70
2022-10-04T11:39:21.000Z,1.60
2022-10-04T11:42:03.103Z,1.63
2022-10-04T11:44:36.729Z,1.83
2022-10-04T11:47:16.107Z,1.70
2022-10-04T11:49:49.098Z,1.27
2022-10-04T11:52:37.300Z,1.88
2022-10-04T11:55:23.966Z,1.45
2022-10-04T11:58:12.070Z,1.80
2022-10-04T12:01:15.932Z,1.63
2022-10-04T12:03:49.252Z,1.52
2022-10-04T12:07:00.010Z,1.63
2022-10-04T12:09:45.984Z,1.60
2022-10-04T12:12:47.433Z,1.80
2022-10-04T12:15:22.268Z,1.50
2022-10-04T12:18:06.471Z,1.70
2022-10-04T12:20:53.345Z,1.70
2022-10-04T12:23:53.320Z,1.73
2022-10-04T12:27:19.333Z,1.60
2022-10-04T12:30:04.518Z,1.75
2022-10-04T12:32:52.246Z,2.60
2022-10-04T12:35:56.172Z,2.17
2022-10-04T12:38:52.429Z,2.85
2022-10-04T12:44:08.032Z,1.50
2022-10-04T12:47:14.321Z,1.90
2022-10-04T12:49:51.456Z,1.35
2022-10-04T12:52:24.697Z,2.03
2022-10-04T12:55:17.542Z,1.60
2022-10-04T12:58:00.108Z,1.73
2022-10-04T13:00:35.582Z,1.42
2022-10-04T13:03:08.737Z,1.83
2022-10-04T13:05:54.959Z,1.60
2022-10-04T13:11:13.586Z,1.35
2022-10-04T13:13:59.724Z,1.58
2022-10-04T13:19:41.820Z,1.55
2022-10-04T13:22:11.908Z,1.65
2022-10-04T13:24:57.998Z,1.70
2022-10-04T13:27:38.450Z,1.58
2022-10-04T13:30:50.464Z,1.17
2022-10-04T13:33:36.310Z,1.45
2022-10-04T13:36:09.811Z,1.60
2022-10-04T13:38:39.558Z,2.00
2022-10-04T13:41:32.885Z,1.63
2022-10-04T13:44:15.341Z,1.55
2022-10-04T13:47:30.583Z,1.67
2022-10-04T13:50:30.589Z,1.38
2022-10-04T13:53:53.151Z,1.30
2022-10-04T13:56:59.265Z,1.52
2022-10-04T13:59:49.516Z,1.50
2022-10-04T14:02:58.567Z,1.50
2022-10-04T14:05:46.895Z,1.50
2022-10-04T14:08:33.167Z,1.50
2022-10-04T14:11:27.351Z,1.48
2022-10-04T14:14:10.310Z,1.52
2022-10-04T14:16:59.511Z,1.35
2022-10-04T14:19:42.031Z,1.65
2022-10-04T14:22:24.510Z,1.42
2022-10-04T14:25:18.867Z,1.52
2022-10-04T14:28:45.612Z,1.27
2022-10-04T14:31:37.089Z,1.30
2022-10-04T14:34:30.100Z,1.27
2022-10-04T14:37:01.109Z,1.35
2022-10-04T14:39:36.570Z,1.35
2022-10-04T14:42:25.714Z,1.17
2022-10-04T14:45:06.075Z,0.90
2022-10-04T14:48:01.965Z,1.38
2022-10-04T14:50:47.325Z,1.48
2022-10-04T14:53:41.613Z,1.27
2022-10-04T14:56:11.656Z,1.13
2022-10-04T14:59:02.577Z,1.10
2022-10-04T15:01:30.112Z,1.10
2022-10-04T15:04:11.392Z,1.17
2022-10-04T15:06:50.635Z,1.08
2022-10-04T15:09:46.710Z,1.30
2022-10-04T15:12:51.996Z,0.95
2022-10-04T15:15:13.342Z,1.30
2022-10-04T15:18:19.195Z,1.30
2022-10-04T15:20:57.247Z,0.82
2022-10-04T15:23:42.569Z,1.35
2022-10-04T15:26:19.138Z,1.48
2022-10-04T15:28:48.963Z,1.38
2022-10-04T15:31:48.345Z,1.25
2022-10-04T15:34:38.943Z,1.50
2022-10-04T15:37:12.344Z,0.90
2022-10-04T15:40:13.461Z,1.42
2022-10-04T15:42:54.646Z,1.20
2022-10-04T15:45:42.835Z,1.30
2022-10-04T15:48:48.217Z,1.40
2022-10-04T15:51:20.388Z,1.38
2022-10-04T15:54:35.841Z,1.45
2022-10-04T15:57:37.418Z,1.42
2022-10-04T16:00:32.814Z,1.92
2022-10-04T16:03:38.619Z,2.57
2022-10-04T16:06:24.092Z,1.60
2022-10-04T16:09:09.817Z,2.57
2022-10-04T16:11:40.243Z,2.65
2022-10-04T16:14:46.857Z,2.65
2022-10-04T16:20:02.356Z,3.60
2022-10-04T16:22:31.961Z,3.10
2022-10-04T16:25:23.886Z,2.30
2022-10-04T16:27:57.432Z,2.63
2022-10-04T16:30:28.929Z,1.90
2022-10-04T16:32:59.059Z,1.98
2022-10-04T16:35:37.628Z,1.63
2022-10-04T16:38:17.232Z,2.17
2022-10-04T16:40:50.428Z,1.90
2022-10-04T16:46:06.633Z,2.10
2022-10-04T16:48:49.439Z,2.40
2022-10-04T16:51:16.425Z,4.00
2022-10-04T16:54:07.399Z,3.38
2022-10-04T16:56:54.032Z,2.30
2022-10-04T16:59:41.621Z,2.58
2022-10-04T17:02:17.598Z,3.22
2022-10-04T17:04:57.559Z,3.08
2022-10-04T17:07:30.604Z,3.22
2022-10-04T17:10:16.646Z,3.58
2022-10-04T17:12:46.923Z,3.60
2022-10-04T17:15:19.496Z,3.40
2022-10-04T17:17:46.504Z,4.03
2022-10-04T17:20:29.735Z,3.78
2022-10-04T17:23:12.724Z,4.53
2022-10-04T17:25:47.252Z,5.40
2022-10-04T17:28:14.512Z,5.67
2022-10-04T17:30:50.939Z,5.07
2022-10-04T17:33:36.257Z,5.05
2022-10-04T17:36:09.201Z,4.90
2022-10-04T17:39:01.425Z,3.92
2022-10-04T17:42:08.794Z,4.38
2022-10-04T17:45:07.982Z,4.50
2022-10-04T17:48:32.753Z,3.53
2022-10-04T17:51:28.063Z,3.30
2022-10-04T17:54:22.329Z,3.53
2022-10-04T17:56:58.935Z,3.75
2022-10-04T17:59:31.453Z,3.92
2022-10-04T18:02:11.824Z,4.03
2022-10-04T18:04:50.656Z,3.70
2022-10-04T18:07:20.164Z,3.47
2022-10-04T18:09:59.295Z,4.13
2022-10-04T18:12:37.651Z,3.88
2022-10-04T18:18:07.231Z,3.38
2022-10-04T18:20:39.532Z,3.22
2022-10-04T18:23:24.822Z,3.30
2022-10-04T18:25:57.593Z,3.50
2022-10-04T18:28:28.986Z,3.38
2022-10-04T18:31:00.621Z,3.70
2022-10-04T18:33:40.648Z,3.20
2022-10-04T18:36:21.125Z,3.10
2022-10-04T18:39:21.085Z,3.20
2022-10-04T18:42:21.074Z,3.30
2022-10-04T18:44:59.563Z,3.90
2022-10-04T18:47:37.356Z,4.00
2022-10-04T18:50:35.998Z,3.83
2022-10-04T18:53:39.854Z,3.97
2022-10-04T18:56:10.124Z,4.03
2022-10-04T18:59:16.706Z,3.90
2022-10-04T19:02:01.555Z,4.30
2022-10-04T19:05:04.837Z,4.25
2022-10-04T19:07:51.590Z,4.10
2022-10-04T19:10:47.095Z,3.92
2022-10-04T19:13:24.187Z,3.30
2022-10-04T19:16:12.082Z,3.63
2022-10-04T19:19:14.857Z,4.10
2022-10-04T19:21:59.222Z,4.00
2022-10-04T19:24:32.735Z,3.80
2022-10-04T19:27:13.341Z,3.85
2022-10-04T19:29:51.625Z,3.25
2022-10-04T19:32:58.070Z,3.60
2022-10-04T19:36:18.011Z,3.90
2022-10-04T19:39:27.863Z,3.90
2022-10-04T19:42:06.030Z,4.75
2022-10-04T19:45:08.400Z,5.30
2022-10-04T19:47:50.444Z,15.35
2022-10-04T19:50:24.006Z,4.75
2022-10-04T19:53:12.988Z,4.10
2022-10-04T19:55:49.581Z,3.47
2022-10-04T19:58:39.004Z,3.25
2022-10-04T20:01:21.810Z,3.40
2022-10-04T20:04:10.851Z,3.40
2022-10-04T20:06:48.293Z,3.67
2022-10-04T20:09:51.612Z,3.17
2022-10-04T20:12:40.871Z,3.33
2022-10-04T20:15:17.180Z,3.78
2022-10-04T20:17:46.274Z,3.42
2022-10-04T20:20:16.713Z,3.60
2022-10-04T20:22:50.432Z,3.95
2022-10-04T20:25:45.892Z,3.42
2022-10-04T20:28:28.922Z,3.88
2022-10-04T20:31:01.502Z,3.63
2022-10-04T20:33:34.723Z,3.40
2022-10-04T20:36:05.709Z,3.55
2022-10-04T20:38:53.899Z,3.15
2022-10-04T20:41:50.513Z,3.33
2022-10-04T20:44:44.334Z,2.67
2022-10-04T20:47:49.258Z,3.65
2022-10-04T20:50:25.776Z,4.35
2022-10-04T20:52:59.788Z,3.92
2022-10-04T20:55:36.642Z,3.20
2022-10-04T20:58:21.274Z,3.45
2022-10-04T21:00:58.732Z,3.42
2022-10-04T21:03:26.122Z,3.40
2022-10-04T21:06:01.288Z,3.80
2022-10-04T21:08:29.674Z,3.10
2022-10-04T21:11:11.629Z,3.30
2022-10-04T21:14:00.721Z,3.25
2022-10-04T21:16:47.817Z,3.53
2022-10-04T21:19:36.485Z,3.13
2022-10-04T21:22:04.323Z,2.75
2022-10-04T21:24:42.035Z,3.13
2022-10-04T21:27:12.175Z,3.30
2022-10-04T21:29:39.934Z,3.53
2022-10-04T21:32:07.010Z,4.00
2022-10-04T21:35:03.182Z,3.28
2022-10-04T21:37:25.732Z,3.65
2022-10-04T21:39:53.033Z,3.30
2022-10-04T21:42:20.074Z,3.40
2022-10-04T21:44:47.357Z,3.90
2022-10-04T21:47:14.703Z,3.10
2022-10-04T21:49:41.820Z,4.20
2022-10-04T21:52:09.076Z,4.60
2022-10-04T21:54:36.146Z,4.10
2022-10-04T21:57:03.119Z,3.40
2022-10-04T21:59:30.374Z,5.22
2022-10-04T22:01:57.386Z,4.78
2022-10-04T22:04:24.507Z,3.90
2022-10-04T22:06:51.746Z,4.10
2022-10-04T22:09:19.013Z,4.18
2022-10-04T22:11:46.033Z,4.40
2022-10-04T22:14:16.451Z,3.95
2022-10-04T22:16:44.375Z,4.25
2022-10-04T22:19:11.587Z,3.88
2022-10-04T22:21:41.092Z,4.13
2022-10-04T22:24:18.072Z,3.97
2022-10-04T22:26:48.300Z,4.25
2022-10-04T22:29:17.902Z,3.72
2022-10-04T22:31:52.963Z,4.50
2022-10-04T22:34:23.001Z,3.63
2022-10-04T22:36:52.108Z,3.90
2022-10-04T22:39:20.502Z,4.43
2022-10-04T22:41:55.827Z,4.03
2022-10-04T22:44:30.342Z,3.95
2022-10-04T22:46:59.922Z,4.00
2022-10-04T22:49:30.985Z,4.47
2022-10-04T22:52:00.818Z,3.90
2022-10-04T22:54:32.271Z,4.28
2022-10-04T22:56:59.302Z,4.55
2022-10-04T22:59:39.593Z,4.75
2022-10-04T23:02:13.167Z,4.50
2022-10-04T23:04:43.470Z,4.40
2022-10-04T23:07:10.847Z,5.05
2022-10-04T23:09:37.896Z,4.53
2022-10-04T23:12:08.361Z,4.68
2022-10-04T23:14:39.814Z,5.15
2022-10-04T23:17:29.685Z,4.88
2022-10-04T23:20:01.208Z,4.78
2022-10-04T23:22:30.410Z,5.35
2022-10-04T23:24:58.081Z,5.22
2022-10-04T23:27:25.174Z,4.53
2022-10-04T23:30:02.844Z,4.60
2022-10-04T23:32:34.281Z,5.15
2022-10-04T23:35:05.173Z,5.25
2022-10-04T23:37:32.685Z,5.68
2022-10-04T23:40:01.954Z,5.40
2022-10-04T23:42:32.756Z,5.43
2022-10-04T23:45:01.790Z,5.05
2022-10-04T23:47:37.014Z,5.72
2022-10-04T23:50:24.687Z,5.82
2022-10-04T23:52:55.321Z,5.73
2022-10-04T23:55:24.126Z,6.10
2022-10-04T23:57:51.232Z,5.88
